Time;durP1;ratioP1;P1;durP2;ratioP2;P2;SDS_P1;SDS_P2;PMS_P1;PMS_P2;Temp;Humidity;BMP_temperature;BMP_pressure;BME280_temperature;BME280_humidity;BME280_pressure;Samples;Min_cycle;Max_cycle;Signal;HPM_P1;HPM_P2
2023/10/24 00:02:11;;;;;;;8.37;5.30;;;13.70;99.90;;;;;;10404357;28;20494;-64
2023/10/24 00:07:12;;;;;;;8.93;5.43;;;13.70;99.90;;;;;;10405433;28;20595;-64
2023/10/24 00:12:12;;;;;;;7.80;5.47;;;13.70;99.90;;;;;;10410433;28;20973;-64
2023/10/24 00:17:13;;;;;;;8.37;5.73;;;13.70;99.90;;;;;;10407094;28;20919;-64
2023/10/24 00:22:14;;;;;;;8.52;5.50;;;13.70;99.90;;;;;;10414159;28;21002;-64
2023/10/24 00:27:14;;;;;;;7.33;5.40;;;13.70;99.90;;;;;;10410148;28;20402;-64
2023/10/24 00:32:15;;;;;;;7.63;5.07;;;13.70;99.90;;;;;;10407407;28;20931;-64
2023/10/24 00:37:15;;;;;;;7.90;5.40;;;13.70;99.90;;;;;;10406160;28;20396;-65
2023/10/24 00:42:16;;;;;;;9.00;5.75;;;13.70;99.90;;;;;;10407363;28;20472;-64
2023/10/24 00:47:17;;;;;;;8.77;5.63;;;13.80;99.90;;;;;;10410948;28;20409;-64
2023/10/24 00:52:18;;;;;;;7.83;5.43;;;13.80;99.90;;;;;;10413176;28;20451;-63
2023/10/24 00:57:18;;;;;;;7.20;5.10;;;14.10;99.90;;;;;;10409753;28;20430;-64
2023/10/24 01:02:19;;;;;;;6.85;4.80;;;13.80;99.90;;;;;;10406826;28;20817;-64
2023/10/24 01:07:20;;;;;;;7.40;5.00;;;13.80;99.90;;;;;;10413952;28;20907;-64
2023/10/24 01:12:21;;;;;;;6.82;4.78;;;13.80;99.90;;;;;;10414142;28;20423;-64
2023/10/24 01:17:21;;;;;;;6.67;4.77;;;13.80;99.90;;;;;;10411614;28;20432;-64
2023/10/24 01:22:22;;;;;;;6.80;4.77;;;13.80;99.90;;;;;;10394216;28;20403;-64
2023/10/24 01:27:23;;;;;;;6.80;5.03;;;13.80;99.90;;;;;;10435006;28;20416;-64
2023/10/24 01:32:33;;;;;;;6.97;4.72;;;13.80;99.90;;;;;;10398750;28;20836;-64
2023/10/24 01:37:35;;;;;;;6.65;4.57;;;13.80;99.90;;;;;;10419895;28;20402;-64
2023/10/24 01:42:35;;;;;;;6.68;4.82;;;13.80;99.90;;;;;;10399792;28;20762;-65
2023/10/24 01:47:36;;;;;;;6.00;4.77;;;13.80;99.90;;;;;;10400496;28;20407;-64
2023/10/24 01:52:37;;;;;;;6.60;4.23;;;13.80;99.90;;;;;;10397841;28;20493;-64
2023/10/24 01:57:37;;;;;;;6.80;4.80;;;13.80;99.90;;;;;;10406503;28;20405;-64
2023/10/24 02:02:38;;;;;;;6.07;4.43;;;13.80;99.90;;;;;;10391365;28;20418;-64
2023/10/24 02:07:39;;;;;;;7.20;4.83;;;14.10;99.90;;;;;;10390636;28;20905;-64
2023/10/24 02:12:39;;;;;;;6.82;4.95;;;13.80;99.90;;;;;;10408166;28;21045;-64
2023/10/24 02:17:43;;;;;;;6.43;4.77;;;14.40;99.90;;;;;;10395778;28;20397;-65
2023/10/24 02:22:48;;;;;;;5.95;4.40;;;13.80;99.90;;;;;;10398950;28;20719;-64
2023/10/24 02:27:49;;;;;;;6.53;4.75;;;13.80;99.90;;;;;;10394518;28;21080;-64
2023/10/24 02:32:50;;;;;;;5.87;4.60;;;13.80;99.90;;;;;;10409491;28;20509;-65
2023/10/24 02:37:50;;;;;;;6.23;4.57;;;13.80;99.90;;;;;;10401225;28;20790;-64
2023/10/24 02:42:51;;;;;;;5.80;4.70;;;13.80;99.90;;;;;;10413174;28;20952;-65
2023/10/24 02:47:51;;;;;;;5.90;4.43;;;13.80;99.90;;;;;;10407614;28;20923;-64
2023/10/24 02:52:52;;;;;;;6.70;4.70;;;13.80;99.90;;;;;;10400863;28;20418;-63
2023/10/24 02:57:53;;;;;;;6.30;4.80;;;13.90;99.90;;;;;;10401511;28;20400;-64
2023/10/24 03:02:53;;;;;;;6.70;4.57;;;13.90;99.90;;;;;;10395393;28;20411;-65
2023/10/24 03:07:54;;;;;;;6.20;4.83;;;13.90;99.90;;;;;;10399179;28;20798;-65
2023/10/24 03:12:55;;;;;;;6.50;4.78;;;13.90;99.90;;;;;;10395437;28;21077;-64
2023/10/24 03:17:56;;;;;;;6.63;4.60;;;13.90;99.90;;;;;;10402024;28;20393;-64
2023/10/24 03:22:57;;;;;;;6.38;4.50;;;13.90;99.90;;;;;;10408544;28;20407;-65
2023/10/24 03:27:57;;;;;;;6.83;4.97;;;13.90;99.90;;;;;;10407008;28;20779;-65
2023/10/24 03:32:58;;;;;;;6.82;4.90;;;13.90;99.90;;;;;;10404926;28;20434;-65
2023/10/24 03:37:58;;;;;;;6.27;4.53;;;13.90;99.90;;;;;;10414998;28;20395;-64
2023/10/24 03:42:59;;;;;;;6.13;4.53;;;13.90;99.90;;;;;;10427334;28;20861;-65
2023/10/24 03:47:59;;;;;;;5.80;4.60;;;13.90;99.90;;;;;;10409334;28;20911;-64
2023/10/24 03:53:00;;;;;;;6.00;4.45;;;13.90;99.90;;;;;;10405306;28;20406;-63
2023/10/24 03:58:01;;;;;;;5.77;4.60;;;13.90;99.90;;;;;;10405450;28;20403;-63
2023/10/24 04:03:02;;;;;;;5.27;4.50;;;13.90;99.90;;;;;;10405123;28;21289;-64
2023/10/24 04:08:03;;;;;;;5.27;4.60;;;13.90;99.90;;;;;;10402177;28;20519;-64
2023/10/24 04:13:04;;;;;;;6.35;4.72;;;13.90;99.90;;;;;;10415501;28;20430;-65
2023/10/24 04:18:04;;;;;;;8.03;4.77;;;13.90;99.90;;;;;;10409892;28;20893;-64
2023/10/24 04:23:14;;;;;;;6.40;4.55;;;13.90;99.90;;;;;;10406389;28;20405;-65
2023/10/24 04:28:15;;;;;;;6.23;4.57;;;14.00;99.90;;;;;;10410464;28;20432;-64
2023/10/24 04:33:15;;;;;;;6.85;4.85;;;13.90;99.90;;;;;;10408787;28;20854;-64
2023/10/24 04:38:19;;;;;;;7.43;4.90;;;13.90;99.90;;;;;;10414895;28;20393;-65
2023/10/24 04:43:20;;;;;;;5.95;4.90;;;13.90;99.90;;;;;;10406004;28;20703;-65
2023/10/24 04:48:20;;;;;;;7.00;4.50;;;14.00;99.90;;;;;;10406461;28;20424;-64
2023/10/24 04:53:21;;;;;;;6.23;4.87;;;14.00;99.90;;;;;;10397346;28;20488;-64
2023/10/24 04:58:21;;;;;;;5.60;4.57;;;14.00;99.90;;;;;;10406936;28;20409;-64
2023/10/24 05:03:22;;;;;;;5.05;4.32;;;14.00;99.90;;;;;;10414688;28;20417;-64
2023/10/24 05:08:22;;;;;;;5.33;4.13;;;14.00;99.90;;;;;;10403638;28;20462;-63
2023/10/24 05:13:23;;;;;;;5.90;4.20;;;14.00;99.90;;;;;;10410739;28;20418;-65
2023/10/24 05:18:24;;;;;;;5.03;4.00;;;14.00;99.90;;;;;;10399527;28;20434;-64
2023/10/24 05:23:25;;;;;;;5.85;4.10;;;14.20;99.90;;;;;;10408721;28;20444;-65
2023/10/24 05:28:25;;;;;;;5.47;3.83;;;14.00;99.90;;;;;;10405416;28;20424;-64
2023/10/24 05:33:26;;;;;;;5.33;3.60;;;14.00;99.90;;;;;;10401492;28;20461;-64
2023/10/24 05:38:27;;;;;;;5.03;3.77;;;14.00;99.90;;;;;;10405446;28;20787;-65
2023/10/24 05:43:27;;;;;;;5.80;3.70;;;14.00;99.90;;;;;;10406918;28;20491;-64
2023/10/24 05:48:28;;;;;;;4.65;3.70;;;14.00;99.90;;;;;;10405109;28;20423;-65
2023/10/24 05:53:28;;;;;;;4.33;3.60;;;14.00;99.90;;;;;;10407169;28;20402;-64
2023/10/24 05:58:29;;;;;;;4.30;3.37;;;14.00;99.90;;;;;;10416822;28;20419;-65
2023/10/24 06:03:29;;;;;;;4.60;3.47;;;14.00;99.90;;;;;;10394645;28;20406;-64
2023/10/24 06:08:30;;;;;;;4.38;3.30;;;14.00;99.90;;;;;;10407666;28;20467;-64
2023/10/24 06:13:34;;;;;;;4.43;3.30;;;14.00;99.90;;;;;;10404612;28;20413;-67
2023/10/24 06:18:34;;;;;;;6.23;3.30;;;14.10;99.90;;;;;;10407529;28;20884;-66
2023/10/24 06:23:38;;;;;;;4.60;3.25;;;14.00;99.90;;;;;;10407730;28;20403;-64
2023/10/24 06:28:39;;;;;;;4.28;3.20;;;14.00;99.90;;;;;;10404527;28;20423;-64
2023/10/24 06:33:40;;;;;;;3.65;2.92;;;14.00;99.90;;;;;;10413148;28;20971;-64
2023/10/24 06:38:41;;;;;;;4.37;2.93;;;14.10;99.90;;;;;;10398667;28;20789;-64
2023/10/24 06:43:41;;;;;;;5.20;3.20;;;14.00;99.90;;;;;;10396162;28;20408;-62
2023/10/24 06:48:42;;;;;;;4.30;3.10;;;14.00;99.90;;;;;;10415267;28;20411;-63
2023/10/24 06:53:42;;;;;;;3.97;3.27;;;14.00;99.90;;;;;;10399882;28;20398;-64
2023/10/24 06:58:43;;;;;;;4.30;3.10;;;14.00;99.90;;;;;;10395559;28;20498;-63
2023/10/24 07:03:43;;;;;;;4.10;3.05;;;14.00;99.90;;;;;;10418452;28;20414;-64
2023/10/24 07:08:46;;;;;;;4.23;3.23;;;14.00;99.90;;;;;;10408380;28;20478;-63
2023/10/24 07:13:47;;;;;;;4.78;3.40;;;14.00;99.90;;;;;;10413467;28;20407;-64
2023/10/24 07:18:47;;;;;;;4.40;3.23;;;14.00;99.90;;;;;;10418113;28;20774;-64
2023/10/24 07:23:48;;;;;;;4.55;3.40;;;14.00;99.90;;;;;;10407485;28;21235;-64
2023/10/24 07:28:48;;;;;;;4.87;3.00;;;14.00;99.90;;;;;;10405006;28;20764;-64
2023/10/24 07:33:49;;;;;;;4.00;3.20;;;14.10;99.90;;;;;;10411726;28;20781;-65
2023/10/24 07:38:50;;;;;;;4.70;3.30;;;14.10;99.90;;;;;;10409004;28;20433;-64
2023/10/24 07:43:51;;;;;;;4.32;3.20;;;14.00;99.90;;;;;;10418427;28;20405;-65
2023/10/24 07:48:52;;;;;;;4.95;3.22;;;14.10;99.90;;;;;;10413297;28;20468;-64
2023/10/24 07:53:54;;;;;;;4.72;3.10;;;14.00;99.90;;;;;;10408848;28;20443;-62
2023/10/24 07:58:55;;;;;;;4.43;3.35;;;14.10;99.90;;;;;;10414135;28;20903;-64
2023/10/24 08:03:56;;;;;;;4.97;3.53;;;14.10;99.90;;;;;;10411547;28;20427;-64
2023/10/24 08:08:56;;;;;;;5.22;3.60;;;14.10;99.90;;;;;;10408529;28;20961;-64
2023/10/24 08:13:57;;;;;;;4.93;3.53;;;14.00;99.90;;;;;;10396750;28;20422;-64
2023/10/24 08:18:58;;;;;;;5.18;4.00;;;14.00;99.90;;;;;;10396970;28;20503;-64
2023/10/24 08:23:58;;;;;;;6.23;3.97;;;14.00;99.90;;;;;;10400868;28;20940;-63
2023/10/24 08:28:59;;;;;;;5.73;3.87;;;14.00;99.90;;;;;;10402069;28;20409;-63
2023/10/24 08:33:59;;;;;;;6.03;4.13;;;14.00;99.90;;;;;;10403994;28;20885;-63
2023/10/24 08:39:00;;;;;;;6.07;4.10;;;14.00;99.90;;;;;;10398249;28;20923;-64
2023/10/24 08:44:02;;;;;;;5.73;3.87;;;14.10;99.90;;;;;;10402213;28;20406;-64
2023/10/24 08:49:03;;;;;;;5.55;4.00;;;14.10;99.90;;;;;;10425606;28;20885;-63
2023/10/24 08:54:04;;;;;;;4.95;3.58;;;14.10;99.90;;;;;;10402501;28;20402;-63
2023/10/24 08:59:08;;;;;;;5.87;3.90;;;14.10;99.90;;;;;;10401323;28;20901;-64
2023/10/24 09:04:09;;;;;;;6.28;4.03;;;14.30;99.90;;;;;;10401413;28;20407;-64
2023/10/24 09:09:09;;;;;;;5.60;3.77;;;14.10;99.90;;;;;;10398677;28;20412;-64
2023/10/24 09:14:10;;;;;;;5.17;3.50;;;14.10;99.90;;;;;;10396403;28;20680;-63
2023/10/24 09:19:14;;;;;;;5.93;3.92;;;14.10;99.90;;;;;;10406556;28;20411;-64
2023/10/24 09:24:15;;;;;;;5.68;3.70;;;14.10;99.90;;;;;;10397414;28;20422;-63
2023/10/24 09:29:18;;;;;;;5.67;3.80;;;14.10;99.90;;;;;;10402356;28;20418;-63
2023/10/24 09:34:18;;;;;;;5.35;3.75;;;14.10;99.90;;;;;;10402717;28;20434;-63
2023/10/24 09:39:19;;;;;;;6.00;3.83;;;15.20;99.90;;;;;;10400040;28;20431;-63
2023/10/24 09:44:20;;;;;;;5.70;4.07;;;14.10;99.90;;;;;;10398280;28;20476;-63
2023/10/24 09:49:21;;;;;;;5.22;3.75;;;14.10;99.90;;;;;;10392711;28;20507;-63
2023/10/24 09:54:23;;;;;;;5.32;3.78;;;14.10;99.90;;;;;;10393501;28;20398;-63
2023/10/24 09:59:41;;;;;;;5.17;3.77;;;14.10;99.90;;;;;;10373966;28;20464;-64
2023/10/24 10:04:42;;;;;;;5.13;3.83;;;14.20;99.90;;;;;;10397937;28;20539;-64
2023/10/24 10:09:46;;;;;;;5.30;3.90;;;14.10;99.90;;;;;;10397278;28;20980;-63
2023/10/24 10:15:23;;;;;;;5.97;4.20;;;14.20;99.90;;;;;;10396555;28;20400;-64
2023/10/24 10:20:41;;;;;;;6.22;4.30;;;14.10;99.90;;;;;;10393475;28;20731;-64
2023/10/24 10:26:06;;;;;;;5.55;4.00;;;14.20;99.90;;;;;;10396681;28;20485;-64
2023/10/24 10:31:23;;;;;;;6.17;4.10;;;14.20;99.90;;;;;;10395818;28;20448;-63
2023/10/24 10:36:25;;;;;;;6.18;4.25;;;14.40;99.90;;;;;;10403535;28;20391;-63
2023/10/24 10:41:27;;;;;;;6.55;4.00;;;14.20;99.90;;;;;;10401557;28;20533;-64
2023/10/24 10:46:32;;;;;;;4.85;3.85;;;14.20;99.90;;;;;;10407500;28;20436;-63
2023/10/24 10:51:36;;;;;;;4.83;3.77;;;14.30;99.90;;;;;;10406152;28;21039;-63
2023/10/24 10:56:39;;;;;;;5.72;3.90;;;14.30;99.90;;;;;;10406936;28;20484;-63
2023/10/24 11:02:07;;;;;;;5.05;3.80;;;14.30;99.90;;;;;;10408218;28;20424;-63
2023/10/24 11:07:09;;;;;;;6.40;4.43;;;14.30;99.80;;;;;;10404900;28;20444;-64
2023/10/24 11:12:27;;;;;;;6.35;4.20;;;14.70;99.90;;;;;;10402494;28;20415;-63
2023/10/24 11:17:27;;;;;;;5.60;4.10;;;14.40;99.80;;;;;;10409813;28;20432;-64
2023/10/24 11:22:31;;;;;;;5.50;4.10;;;14.50;99.80;;;;;;10411988;28;20848;-63
2023/10/24 11:27:31;;;;;;;5.60;4.10;;;14.40;99.80;;;;;;10425591;28;20446;-63
2023/10/24 11:32:33;;;;;;;5.60;4.03;;;14.40;99.80;;;;;;10410822;28;20541;-63
2023/10/24 11:37:33;;;;;;;4.50;3.63;;;14.40;99.80;;;;;;10410564;28;20516;-63
2023/10/24 11:42:34;;;;;;;5.90;3.97;;;14.40;99.80;;;;;;10410492;28;20505;-63
2023/10/24 11:47:35;;;;;;;5.78;3.95;;;14.40;99.80;;;;;;10402704;28;20411;-64
2023/10/24 11:52:35;;;;;;;6.70;3.93;;;14.40;99.80;;;;;;10413832;28;20414;-63
2023/10/24 11:57:36;;;;;;;5.23;3.97;;;14.40;99.90;;;;;;10406591;28;20401;-64
2023/10/24 12:02:40;;;;;;;5.68;4.00;;;14.40;99.80;;;;;;10399622;28;20444;-64
2023/10/24 12:07:42;;;;;;;5.05;3.75;;;14.40;99.80;;;;;;10405439;28;20840;-63
2023/10/24 12:12:45;;;;;;;4.40;3.60;;;14.50;99.80;;;;;;10407028;28;20785;-63
2023/10/24 12:17:46;;;;;;;5.53;4.00;;;14.50;99.80;;;;;;10412471;28;20411;-63
2023/10/24 12:22:47;;;;;;;5.40;4.07;;;14.50;99.70;;;;;;10396226;28;20458;-63
2023/10/24 12:27:48;;;;;;;4.63;3.70;;;14.50;99.70;;;;;;10405460;28;20534;-63
2023/10/24 12:32:49;;;;;;;4.78;3.72;;;14.50;99.70;;;;;;10405788;28;20831;-63
2023/10/24 12:37:49;;;;;;;4.63;3.40;;;14.50;99.70;;;;;;10407273;28;20399;-64
2023/10/24 12:42:50;;;;;;;4.47;3.30;;;14.50;99.70;;;;;;10405274;28;20410;-63
2023/10/24 12:47:53;;;;;;;4.67;3.40;;;14.50;99.70;;;;;;10403258;28;20943;-64
2023/10/24 12:52:54;;;;;;;4.07;3.40;;;14.50;99.70;;;;;;10419520;28;20963;-64
2023/10/24 12:57:55;;;;;;;4.78;3.30;;;14.60;99.70;;;;;;10401731;28;20395;-63
2023/10/24 13:02:56;;;;;;;4.30;3.37;;;14.50;99.70;;;;;;10405333;28;20457;-63
2023/10/24 13:07:58;;;;;;;4.23;3.20;;;14.50;99.70;;;;;;10403585;28;20405;-63
2023/10/24 13:13:00;;;;;;;4.68;3.47;;;14.60;99.70;;;;;;10402282;28;20443;-64
2023/10/24 13:18:01;;;;;;;4.10;3.20;;;14.50;99.70;;;;;;10404396;28;20403;-63
2023/10/24 13:23:02;;;;;;;3.43;3.10;;;14.50;99.70;;;;;;10411886;28;20411;-64
2023/10/24 13:28:03;;;;;;;4.55;3.00;;;14.60;99.80;;;;;;10396849;28;20419;-64
2023/10/24 13:33:03;;;;;;;4.67;3.13;;;14.50;99.80;;;;;;10404398;28;20407;-64
2023/10/24 13:38:04;;;;;;;4.13;3.30;;;14.50;99.80;;;;;;10403985;28;20389;-65
2023/10/24 13:43:04;;;;;;;4.77;3.10;;;14.50;99.80;;;;;;10397433;28;20493;-64
2023/10/24 13:48:05;;;;;;;4.43;3.00;;;14.50;99.80;;;;;;10408244;28;20472;-64
2023/10/24 13:53:06;;;;;;;5.57;3.40;;;14.50;99.80;;;;;;10400963;28;20426;-64
2023/10/24 13:58:06;;;;;;;4.73;3.40;;;14.50;99.90;;;;;;10402680;28;20960;-64
2023/10/24 14:03:07;;;;;;;4.00;3.23;;;15.10;99.90;;;;;;10408084;28;20442;-64
2023/10/24 14:08:07;;;;;;;4.80;3.20;;;14.50;99.90;;;;;;10406477;28;20395;-65
2023/10/24 14:13:08;;;;;;;4.20;3.38;;;14.60;99.90;;;;;;10402445;28;20419;-65
2023/10/24 14:18:09;;;;;;;4.13;3.10;;;13.90;99.90;;;;;;10414954;28;20410;-64
2023/10/24 14:23:13;;;;;;;5.13;3.10;;;14.80;99.90;;;;;;10400804;28;20655;-65
2023/10/24 14:28:14;;;;;;;3.60;2.80;;;15.00;99.90;;;;;;10400247;28;20452;-64
2023/10/24 14:33:15;;;;;;;3.17;2.88;;;14.60;99.90;;;;;;10421125;28;20501;-65
2023/10/24 14:38:15;;;;;;;3.17;2.87;;;14.60;99.90;;;;;;10403980;28;20399;-64
2023/10/24 14:43:16;;;;;;;3.33;2.87;;;14.60;99.90;;;;;;10399328;28;20403;-65
2023/10/24 14:48:17;;;;;;;3.35;2.70;;;14.50;99.90;;;;;;10405802;28;20421;-64
2023/10/24 14:53:17;;;;;;;4.73;2.73;;;14.50;99.90;;;;;;10397918;28;20506;-64
2023/10/24 14:58:18;;;;;;;2.87;2.40;;;14.60;99.90;;;;;;10402517;28;21435;-64
2023/10/24 15:03:19;;;;;;;3.60;2.75;;;14.60;99.90;;;;;;10391138;28;20423;-62
2023/10/24 15:08:20;;;;;;;2.80;2.50;;;14.50;99.90;;;;;;10401707;28;20495;-65
2023/10/24 15:13:21;;;;;;;3.20;2.60;;;14.50;99.90;;;;;;10400465;28;20415;-65
2023/10/24 15:18:22;;;;;;;3.13;2.50;;;14.50;99.90;;;;;;10404152;28;20399;-65
2023/10/24 15:23:22;;;;;;;3.30;2.60;;;14.50;99.90;;;;;;10417266;28;20600;-65
2023/10/24 15:28:23;;;;;;;3.63;2.60;;;14.60;99.90;;;;;;10401982;28;20780;-66
2023/10/24 15:33:24;;;;;;;2.90;2.40;;;14.50;99.90;;;;;;10407811;28;20428;-66
2023/10/24 15:38:24;;;;;;;2.90;2.27;;;14.50;99.90;;;;;;10397018;28;20401;-65
2023/10/24 15:43:25;;;;;;;2.37;2.03;;;14.50;99.90;;;;;;10398481;28;20453;-66
2023/10/24 15:48:25;;;;;;;2.40;2.00;;;14.50;99.90;;;;;;10414478;28;20518;-66
2023/10/24 15:53:26;;;;;;;3.03;2.30;;;14.50;99.90;;;;;;10410612;28;20998;-66
2023/10/24 15:58:33;;;;;;;2.17;1.90;;;14.50;99.90;;;;;;10410912;28;20403;-66
2023/10/24 16:03:33;;;;;;;2.97;2.20;;;14.50;99.90;;;;;;10412112;28;20512;-67
2023/10/24 16:08:34;;;;;;;2.63;2.25;;;14.50;99.90;;;;;;10415459;28;20413;-65
2023/10/24 16:13:35;;;;;;;2.78;2.00;;;14.50;99.90;;;;;;10406745;28;20904;-66
2023/10/24 16:18:36;;;;;;;2.13;1.80;;;14.50;99.90;;;;;;10413681;28;20759;-65
2023/10/24 16:23:36;;;;;;;2.20;1.70;;;14.50;99.90;;;;;;10429802;28;20879;-66
2023/10/24 16:28:39;;;;;;;2.22;1.85;;;14.50;99.90;;;;;;10407166;28;20481;-64
2023/10/24 16:33:39;;;;;;;2.25;1.92;;;14.50;99.90;;;;;;10412265;28;20984;-64
2023/10/24 16:38:40;;;;;;;2.50;1.90;;;14.40;99.90;;;;;;10408402;28;20455;-65
2023/10/24 16:43:41;;;;;;;2.30;1.80;;;14.40;99.90;;;;;;10393983;28;20401;-65
2023/10/24 16:48:41;;;;;;;2.20;1.70;;;14.40;99.90;;;;;;10412896;28;20426;-64
2023/10/24 16:53:44;;;;;;;3.00;1.97;;;14.40;99.90;;;;;;10411411;28;20902;-66
2023/10/24 16:58:44;;;;;;;2.63;2.03;;;14.40;99.90;;;;;;10399644;28;20489;-65
2023/10/24 17:03:45;;;;;;;3.47;2.10;;;14.30;99.90;;;;;;10416570;28;20397;-64
2023/10/24 17:08:45;;;;;;;2.50;2.03;;;14.30;99.90;;;;;;10402061;28;20502;-67
2023/10/24 17:13:46;;;;;;;2.83;2.10;;;14.50;99.90;;;;;;10404376;28;20414;-64
2023/10/24 17:18:47;;;;;;;3.73;2.20;;;14.30;99.90;;;;;;10405698;28;20493;-66
2023/10/24 17:23:48;;;;;;;2.70;2.13;;;14.30;99.90;;;;;;10419082;28;20411;-65
2023/10/24 17:28:48;;;;;;;3.00;2.25;;;14.30;99.90;;;;;;10397686;28;20450;-65
2023/10/24 17:33:49;;;;;;;2.87;2.10;;;14.30;99.90;;;;;;10407699;28;20514;-66
2023/10/24 17:38:49;;;;;;;3.73;2.23;;;14.30;99.90;;;;;;10401283;28;20463;-65
2023/10/24 17:43:50;;;;;;;2.60;2.17;;;14.30;99.90;;;;;;10404227;28;20403;-66
2023/10/24 17:48:51;;;;;;;3.05;2.10;;;14.40;99.90;;;;;;10413270;28;20417;-65
2023/10/24 17:53:51;;;;;;;2.83;2.30;;;14.40;99.90;;;;;;10402381;28;20407;-65
2023/10/24 17:58:52;;;;;;;3.17;2.40;;;14.30;99.90;;;;;;10388464;28;20391;-64
2023/10/24 18:03:53;;;;;;;3.00;2.20;;;14.30;99.90;;;;;;10401986;28;20507;-65
2023/10/24 18:08:53;;;;;;;2.27;2.00;;;14.30;99.90;;;;;;10403089;28;21033;-65
2023/10/24 18:13:54;;;;;;;3.67;2.30;;;14.30;99.90;;;;;;10400063;28;20799;-63
2023/10/24 18:18:55;;;;;;;2.60;2.20;;;14.30;99.90;;;;;;10400618;28;20946;-64
2023/10/24 18:23:55;;;;;;;2.80;2.30;;;14.30;99.90;;;;;;10400531;28;20490;-65
2023/10/24 18:28:56;;;;;;;3.17;2.00;;;14.30;99.90;;;;;;10400262;28;20915;-65
2023/10/24 18:33:57;;;;;;;3.57;2.30;;;14.30;99.90;;;;;;10399920;28;20413;-65
2023/10/24 18:38:57;;;;;;;2.63;2.20;;;14.30;99.90;;;;;;10402815;28;20966;-64
2023/10/24 18:43:58;;;;;;;3.50;2.30;;;14.30;99.90;;;;;;10421305;28;20783;-65
2023/10/24 18:48:59;;;;;;;2.77;2.30;;;14.30;99.90;;;;;;10411193;28;20418;-65
2023/10/24 18:53:59;;;;;;;3.45;2.30;;;14.30;99.90;;;;;;10407203;28;20422;-64
2023/10/24 18:59:03;;;;;;;3.60;2.30;;;14.30;99.90;;;;;;10402497;28;20734;-65
2023/10/24 19:04:07;;;;;;;2.33;2.13;;;14.30;99.90;;;;;;10411049;28;20410;-65
2023/10/24 19:09:07;;;;;;;3.22;2.30;;;14.30;99.90;;;;;;10409499;28;20410;-64
2023/10/24 19:14:08;;;;;;;3.97;2.37;;;14.90;99.90;;;;;;10413677;28;20410;-65
2023/10/24 19:19:10;;;;;;;3.45;2.40;;;14.30;99.90;;;;;;10408220;28;20932;-64
2023/10/24 19:24:11;;;;;;;3.13;2.40;;;14.30;99.90;;;;;;10411049;28;21087;-64
2023/10/24 19:29:12;;;;;;;2.85;2.17;;;14.30;99.90;;;;;;10408607;28;20405;-65
2023/10/24 19:34:13;;;;;;;2.67;2.10;;;14.30;99.90;;;;;;10410427;28;20407;-65
2023/10/24 19:39:14;;;;;;;2.77;2.37;;;14.30;99.90;;;;;;10401562;28;20403;-64
2023/10/24 19:44:15;;;;;;;3.20;2.42;;;14.30;99.90;;;;;;10407525;28;20783;-65
2023/10/24 19:49:15;;;;;;;2.87;2.40;;;14.20;99.90;;;;;;10412095;28;20425;-64
2023/10/24 19:54:16;;;;;;;3.65;2.10;;;14.30;99.90;;;;;;10407805;28;20403;-64
2023/10/24 19:59:17;;;;;;;3.20;2.23;;;14.20;99.90;;;;;;10413787;28;20418;-63
2023/10/24 20:04:19;;;;;;;2.70;2.30;;;14.20;99.90;;;;;;10410751;28;20798;-64
2023/10/24 20:09:19;;;;;;;2.58;2.25;;;14.20;99.90;;;;;;10402044;28;20413;-64
2023/10/24 20:14:20;;;;;;;4.10;2.50;;;14.20;99.90;;;;;;10406882;28;20919;-65
2023/10/24 20:19:21;;;;;;;3.43;2.50;;;14.20;99.90;;;;;;10405950;28;20453;-65
2023/10/24 20:24:22;;;;;;;3.33;2.20;;;14.20;99.90;;;;;;10407009;28;20410;-65
2023/10/24 20:29:22;;;;;;;3.47;2.70;;;14.20;99.90;;;;;;10406734;28;21011;-65
2023/10/24 20:34:23;;;;;;;3.63;2.23;;;14.20;99.90;;;;;;10410947;28;20404;-67
2023/10/24 20:39:23;;;;;;;4.22;2.67;;;14.40;99.90;;;;;;10404921;28;20441;-65
2023/10/24 20:44:24;;;;;;;4.07;2.30;;;14.20;99.90;;;;;;10401727;28;21104;-65
2023/10/24 20:49:25;;;;;;;4.40;2.50;;;14.20;99.90;;;;;;10410058;28;20510;-64
2023/10/24 20:54:25;;;;;;;3.90;2.70;;;14.10;99.90;;;;;;10399863;28;20451;-65
2023/10/24 20:59:28;;;;;;;4.43;2.27;;;14.10;99.90;;;;;;10423576;28;20518;-65
2023/10/24 21:04:28;;;;;;;3.15;2.30;;;14.10;99.90;;;;;;10410333;28;20933;-65
2023/10/24 21:09:31;;;;;;;3.50;2.33;;;14.10;99.90;;;;;;10403779;28;20421;-65
2023/10/24 21:14:32;;;;;;;3.05;2.30;;;14.10;99.90;;;;;;10405389;28;20391;-66
2023/10/24 21:19:33;;;;;;;3.20;2.30;;;14.10;99.90;;;;;;10425849;28;20930;-64
2023/10/24 21:24:35;;;;;;;2.65;2.30;;;14.60;99.90;;;;;;10400118;28;20506;-65
2023/10/24 21:29:36;;;;;;;3.08;2.28;;;14.10;99.90;;;;;;10403937;28;20427;-65
2023/10/24 21:34:36;;;;;;;2.80;2.10;;;14.10;99.90;;;;;;10400965;28;20394;-65
2023/10/24 21:39:37;;;;;;;3.35;2.17;;;14.10;99.90;;;;;;10403595;28;20405;-66
2023/10/24 21:44:37;;;;;;;3.33;2.10;;;14.10;99.90;;;;;;10411073;28;20406;-64
2023/10/24 21:49:41;;;;;;;3.70;2.20;;;14.10;99.90;;;;;;10403669;28;20416;-65
2023/10/24 21:54:42;;;;;;;2.87;2.00;;;14.00;99.80;;;;;;10405112;28;20385;-65
2023/10/24 21:59:43;;;;;;;3.15;2.25;;;14.00;99.80;;;;;;10405951;28;20432;-64
2023/10/24 22:04:45;;;;;;;3.60;2.30;;;14.60;99.90;;;;;;10399429;28;20407;-63
2023/10/24 22:09:45;;;;;;;3.65;2.20;;;14.00;99.80;;;;;;10397675;28;20414;-65
2023/10/24 22:14:46;;;;;;;3.17;2.07;;;14.00;99.80;;;;;;10424659;28;20461;-65
2023/10/24 22:19:46;;;;;;;3.05;2.15;;;14.00;99.80;;;;;;10415344;28;20401;-65
2023/10/24 22:24:47;;;;;;;3.50;2.00;;;14.00;99.80;;;;;;10412884;28;20422;-66
2023/10/24 22:29:47;;;;;;;3.93;2.07;;;14.00;99.70;;;;;;10402164;28;20415;-65
2023/10/24 22:34:48;;;;;;;4.00;2.00;;;14.00;99.80;;;;;;10395769;28;20669;-65
2023/10/24 22:39:48;;;;;;;2.77;2.00;;;14.00;99.70;;;;;;10401693;28;20818;-65
2023/10/24 22:44:49;;;;;;;3.80;2.60;;;13.90;99.70;;;;;;10441574;28;20433;-65
2023/10/24 22:49:50;;;;;;;3.17;2.00;;;14.10;99.80;;;;;;10404771;28;20407;-64
2023/10/24 22:54:50;;;;;;;5.53;2.20;;;13.90;99.90;;;;;;10404471;28;20404;-65
2023/10/24 22:59:54;;;;;;;3.35;2.08;;;13.90;99.70;;;;;;10400267;28;20415;-65
2023/10/24 23:04:55;;;;;;;3.70;2.13;;;13.90;99.70;;;;;;10407601;28;20431;-65
2023/10/24 23:09:56;;;;;;;4.00;2.10;;;13.90;99.70;;;;;;10397434;28;20519;-65
2023/10/24 23:14:57;;;;;;;2.67;1.80;;;13.90;99.70;;;;;;10408794;28;20397;-64
2023/10/24 23:19:58;;;;;;;2.90;1.80;;;13.90;99.70;;;;;;10424987;28;20483;-65
2023/10/24 23:24:58;;;;;;;3.17;2.20;;;13.90;99.70;;;;;;10417200;28;20407;-66
2023/10/24 23:29:59;;;;;;;2.90;1.87;;;13.80;99.60;;;;;;10405482;28;21024;-64
2023/10/24 23:34:59;;;;;;;4.13;1.97;;;13.80;99.60;;;;;;10416583;28;20406;-64
2023/10/24 23:40:00;;;;;;;3.70;2.10;;;13.80;99.60;;;;;;10414763;28;20452;-65
2023/10/24 23:45:01;;;;;;;3.17;1.90;;;13.80;99.60;;;;;;10403012;28;20397;-64
2023/10/24 23:50:02;;;;;;;4.37;2.30;;;13.90;99.60;;;;;;10415695;28;20421;-64
2023/10/24 23:55:03;;;;;;;2.63;1.90;;;14.00;99.60;;;;;;10407753;28;20402;-65
